Time;durP1;ratioP1;P1;durP2;ratioP2;P2;SDS_P1;SDS_P2;PMS_P1;PMS_P2;Temp;Humidity;BMP_temperature;BMP_pressure;BME280_temperature;BME280_humidity;BME280_pressure;Samples;Min_cycle;Max_cycle;Signal;HPM_P1;HPM_P2
2022/01/03 00:00:59;;;;;;;44.58;4.72;;;10.60;99.90;;;;;;4207840;28;20080;-77
2022/01/03 00:03:05;;;;;;;44.33;5.00;;;10.50;99.90;;;;;;4207767;28;20094;-78
2022/01/03 00:05:08;;;;;;;43.03;5.78;;;10.50;99.90;;;;;;4213897;28;20055;-79
2022/01/03 00:07:11;;;;;;;34.67;4.80;;;10.50;99.90;;;;;;4224026;28;20075;-79
2022/01/03 00:09:13;;;;;;;37.33;4.22;;;10.60;99.90;;;;;;4205729;28;20083;-80
2022/01/03 00:11:21;;;;;;;40.63;5.68;;;10.60;99.90;;;;;;4207872;28;20102;-79
2022/01/03 00:13:23;;;;;;;42.85;4.40;;;10.50;99.90;;;;;;4207859;28;20452;-79
2022/01/03 00:15:26;;;;;;;43.25;4.85;;;10.60;99.90;;;;;;4207841;28;20539;-79
2022/01/03 00:17:28;;;;;;;35.58;4.90;;;10.60;99.90;;;;;;4198218;28;20072;-79
2022/01/03 00:19:30;;;;;;;44.33;6.85;;;10.50;99.90;;;;;;4208907;28;20063;-78
2022/01/03 00:21:46;;;;;;;46.97;6.10;;;10.60;99.90;;;;;;4205453;28;20076;-78
2022/01/03 00:23:54;;;;;;;41.78;4.78;;;10.60;99.90;;;;;;4194722;28;20091;-79
2022/01/03 00:26:01;;;;;;;31.25;4.53;;;10.60;99.90;;;;;;4207263;28;20557;-79
2022/01/03 00:28:16;;;;;;;46.85;5.15;;;10.70;99.90;;;;;;4213072;28;20136;-79
2022/01/03 00:30:22;;;;;;;37.58;5.20;;;10.70;99.90;;;;;;4213376;28;20080;-78
2022/01/03 00:32:27;;;;;;;45.15;5.22;;;10.70;99.90;;;;;;4199139;28;20056;-78
2022/01/03 00:34:35;;;;;;;39.88;5.10;;;10.70;99.90;;;;;;4197717;28;20617;-80
2022/01/03 00:36:38;;;;;;;42.53;4.72;;;10.70;99.90;;;;;;4200425;28;21047;-78
2022/01/03 00:38:40;;;;;;;35.70;5.47;;;10.70;99.90;;;;;;4192852;28;20463;-79
2022/01/03 00:40:42;;;;;;;45.78;5.57;;;10.70;99.90;;;;;;4197781;28;20550;-79
2022/01/03 00:42:44;;;;;;;52.22;6.10;;;10.70;99.90;;;;;;4198161;28;20052;-80
2022/01/03 00:44:46;;;;;;;35.65;4.65;;;10.60;99.90;;;;;;4200940;28;20040;-79
2022/01/03 00:46:48;;;;;;;42.25;5.38;;;10.70;99.90;;;;;;4181284;28;20120;-79
2022/01/03 00:48:52;;;;;;;46.83;5.30;;;10.70;99.90;;;;;;4182637;28;20080;-79
2022/01/03 00:50:54;;;;;;;37.03;4.63;;;10.70;99.90;;;;;;4181392;28;20073;-79
2022/01/03 00:52:56;;;;;;;46.85;5.47;;;10.70;99.90;;;;;;4179884;28;20135;-79
2022/01/03 00:54:58;;;;;;;43.10;5.60;;;10.70;99.90;;;;;;4223011;28;20758;-79
2022/01/03 00:57:05;;;;;;;41.95;5.05;;;10.70;99.90;;;;;;4214740;28;20071;-79
2022/01/03 00:59:31;;;;;;;38.72;5.18;;;10.80;99.90;;;;;;4214733;28;20127;-79
2022/01/03 01:01:36;;;;;;;40.63;5.43;;;10.80;99.90;;;;;;4203477;28;20094;-79
2022/01/03 01:03:40;;;;;;;46.58;6.00;;;10.70;99.90;;;;;;4212842;28;20059;-79
2022/01/03 01:05:47;;;;;;;52.80;5.72;;;10.70;99.90;;;;;;4214159;28;20139;-81
2022/01/03 01:07:54;;;;;;;45.58;4.40;;;10.70;99.90;;;;;;4202243;28;20063;-79
2022/01/03 01:09:59;;;;;;;32.78;5.47;;;10.70;99.90;;;;;;4196087;28;20631;-79
2022/01/03 01:12:01;;;;;;;41.58;5.50;;;10.80;99.90;;;;;;4199658;28;20086;-79
2022/01/03 01:14:03;;;;;;;43.85;6.28;;;10.80;99.90;;;;;;4195713;28;20117;-78
2022/01/03 01:16:07;;;;;;;46.03;4.78;;;10.80;99.90;;;;;;4197509;28;20048;-78
2022/01/03 01:18:10;;;;;;;44.53;5.68;;;10.80;99.90;;;;;;4197798;28;20057;-80
2022/01/03 01:20:15;;;;;;;36.97;5.28;;;10.80;99.90;;;;;;4196860;28;20045;-78
2022/01/03 01:22:20;;;;;;;44.35;5.85;;;10.80;99.90;;;;;;4196809;28;20585;-80
2022/01/03 01:24:24;;;;;;;38.35;5.35;;;10.80;99.90;;;;;;4180418;28;20551;-79
2022/01/03 01:28:46;;;;;;;45.65;5.80;;;10.80;99.90;;;;;;4214164;28;20534;-81
2022/01/03 01:30:53;;;;;;;44.55;5.47;;;10.80;99.90;;;;;;4210291;28;20777;-80
2022/01/03 01:33:12;;;;;;;41.17;4.70;;;10.90;99.90;;;;;;4245007;27;20050;-80
2022/01/03 01:35:16;;;;;;;38.83;4.43;;;10.90;99.90;;;;;;4213906;28;20052;-79
2022/01/03 01:37:19;;;;;;;44.33;4.68;;;10.90;99.90;;;;;;4213809;28;20087;-79
2022/01/03 01:39:24;;;;;;;32.63;4.30;;;10.90;99.90;;;;;;4189154;28;20082;-78
2022/01/03 01:41:28;;;;;;;42.92;5.18;;;10.90;99.90;;;;;;4180591;28;20045;-79
2022/01/03 01:43:37;;;;;;;42.95;4.97;;;10.90;99.90;;;;;;4185571;28;20068;-79
2022/01/03 01:45:42;;;;;;;46.67;5.97;;;10.90;99.90;;;;;;4199475;28;20080;-78
2022/01/03 01:47:48;;;;;;;57.25;7.10;;;10.90;99.90;;;;;;4214010;28;20131;-79
2022/01/03 01:49:54;;;;;;;40.22;5.63;;;10.90;99.90;;;;;;4220585;28;20130;-80
2022/01/03 01:52:01;;;;;;;41.97;4.95;;;10.90;99.90;;;;;;4218805;28;20053;-79
2022/01/03 01:54:05;;;;;;;57.15;5.85;;;10.90;99.90;;;;;;4180381;28;20562;-79
2022/01/03 01:56:15;;;;;;;37.00;5.25;;;10.90;99.90;;;;;;4196903;28;20447;-78
2022/01/03 01:58:28;;;;;;;38.42;4.35;;;10.90;99.90;;;;;;4180365;28;20068;-80
2022/01/03 02:00:34;;;;;;;39.22;5.18;;;10.90;99.90;;;;;;4197226;28;20098;-78
2022/01/03 02:02:44;;;;;;;49.65;5.03;;;10.90;99.90;;;;;;4187891;28;20770;-79
2022/01/03 02:04:46;;;;;;;42.10;4.70;;;10.90;99.90;;;;;;4211413;28;20051;-80
2022/01/03 02:06:49;;;;;;;50.55;5.63;;;10.80;99.90;;;;;;4213620;28;20097;-80
2022/01/03 02:09:38;;;;;;;36.13;3.95;;;10.90;99.90;;;;;;4215231;28;20044;-78
2022/01/03 02:11:52;;;;;;;37.30;4.72;;;10.90;99.90;;;;;;4145706;28;20148;-78
2022/01/03 02:13:55;;;;;;;37.22;5.13;;;10.90;99.90;;;;;;4132662;28;20445;-77
2022/01/03 02:16:03;;;;;;;41.35;5.35;;;10.90;99.90;;;;;;4137251;28;20566;-84
2022/01/03 02:18:06;;;;;;;39.60;5.00;;;10.90;99.90;;;;;;4167414;28;20044;-77
2022/01/03 02:20:11;;;;;;;45.50;5.93;;;10.90;99.90;;;;;;4177185;28;20107;-81
2022/01/03 02:22:13;;;;;;;41.60;4.70;;;11.00;99.90;;;;;;4178727;28;20052;-84
2022/01/03 02:24:15;;;;;;;35.28;4.30;;;11.00;99.90;;;;;;4180073;28;20060;-78
2022/01/03 02:26:17;;;;;;;44.08;5.32;;;10.90;99.90;;;;;;4194790;28;20133;-78
2022/01/03 02:28:22;;;;;;;33.10;4.68;;;10.90;99.90;;;;;;4213607;28;20051;-77
2022/01/03 02:30:28;;;;;;;41.08;5.13;;;10.90;99.90;;;;;;4216993;28;20048;-80
2022/01/03 02:32:30;;;;;;;42.60;5.00;;;10.90;99.90;;;;;;4226108;28;20054;-79
2022/01/03 02:34:32;;;;;;;43.25;4.65;;;11.00;99.90;;;;;;4181245;28;20076;-79
2022/01/03 02:36:36;;;;;;;40.60;4.63;;;10.90;99.90;;;;;;4181758;28;20647;-79
2022/01/03 02:38:38;;;;;;;43.25;4.18;;;10.90;99.90;;;;;;4174680;28;20053;-78
2022/01/03 02:40:41;;;;;;;35.65;4.47;;;11.00;99.90;;;;;;4178471;28;20491;-78
2022/01/03 02:42:43;;;;;;;33.67;4.60;;;11.00;99.90;;;;;;4177819;28;20049;-79
2022/01/03 02:44:46;;;;;;;40.10;5.57;;;11.00;99.90;;;;;;4179552;28;20049;-79
2022/01/03 02:46:48;;;;;;;47.80;5.07;;;11.00;99.90;;;;;;4180019;28;20077;-78
2022/01/03 02:48:50;;;;;;;44.28;4.72;;;11.00;99.90;;;;;;4202754;28;20470;-78
2022/01/03 02:50:53;;;;;;;33.40;4.20;;;11.00;99.90;;;;;;4179803;28;20105;-78
2022/01/03 02:52:55;;;;;;;48.03;5.93;;;11.00;99.90;;;;;;4164652;28;20136;-79
2022/01/03 02:54:57;;;;;;;39.15;4.88;;;11.00;99.90;;;;;;4179342;28;20127;-78
2022/01/03 02:56:59;;;;;;;46.22;4.57;;;11.00;99.90;;;;;;4207432;28;20121;-80
2022/01/03 02:59:02;;;;;;;45.53;5.93;;;11.00;99.90;;;;;;4196611;28;20127;-78
2022/01/03 03:01:04;;;;;;;37.78;5.20;;;11.00;99.90;;;;;;4179943;28;20701;-80
2022/01/03 03:03:06;;;;;;;38.97;5.57;;;11.00;99.90;;;;;;4179082;28;20048;-79
2022/01/03 03:05:10;;;;;;;39.95;5.80;;;11.00;99.90;;;;;;4195583;28;20165;-78
2022/01/03 03:07:20;;;;;;;35.13;5.35;;;11.00;99.90;;;;;;4190941;28;20128;-79
2022/01/03 03:09:22;;;;;;;45.10;4.75;;;11.00;99.90;;;;;;4187827;28;20131;-78
2022/01/03 03:11:24;;;;;;;49.20;5.43;;;11.00;99.90;;;;;;4196393;28;20550;-79
2022/01/03 03:13:26;;;;;;;40.08;5.43;;;11.00;99.90;;;;;;4179503;28;20076;-78
2022/01/03 03:15:28;;;;;;;40.83;5.38;;;11.00;99.90;;;;;;4183256;28;20424;-79
2022/01/03 03:17:30;;;;;;;43.25;5.13;;;11.00;99.90;;;;;;4195657;28;20084;-79
2022/01/03 03:19:32;;;;;;;39.72;5.90;;;11.00;99.90;;;;;;4229411;28;20075;-79
2022/01/03 03:21:34;;;;;;;42.67;4.95;;;11.10;99.90;;;;;;4229615;28;20082;-80
2022/01/03 03:23:36;;;;;;;38.25;5.20;;;11.00;99.90;;;;;;4229202;28;20083;-79
2022/01/03 03:25:38;;;;;;;36.95;5.07;;;11.10;99.90;;;;;;4218427;28;20127;-79
2022/01/03 03:27:46;;;;;;;49.47;5.20;;;11.00;99.90;;;;;;4228983;28;20503;-78
2022/01/03 03:29:50;;;;;;;45.88;5.05;;;11.00;99.90;;;;;;4223893;28;20048;-79
2022/01/03 03:31:52;;;;;;;49.78;6.22;;;11.00;99.90;;;;;;4187848;28;20131;-80
2022/01/03 03:33:54;;;;;;;40.38;4.60;;;11.00;99.90;;;;;;4179375;28;20072;-79
2022/01/03 03:35:57;;;;;;;35.15;5.18;;;11.10;99.90;;;;;;4179292;28;20709;-79
2022/01/03 03:37:59;;;;;;;31.88;4.05;;;11.10;99.90;;;;;;4177793;28;20495;-79
2022/01/03 03:40:01;;;;;;;43.45;5.63;;;11.10;99.90;;;;;;4174848;28;20060;-79
2022/01/03 03:42:05;;;;;;;39.70;4.80;;;11.10;99.90;;;;;;4178038;28;20456;-79
2022/01/03 03:44:07;;;;;;;44.90;6.22;;;11.10;99.90;;;;;;4178480;28;20604;-79
2022/01/03 03:46:10;;;;;;;34.25;4.07;;;11.10;99.90;;;;;;4188593;28;20044;-79
2022/01/03 03:48:12;;;;;;;38.45;5.75;;;11.10;99.90;;;;;;4229252;28;20499;-79
2022/01/03 03:50:14;;;;;;;40.95;5.55;;;11.10;99.90;;;;;;4229511;28;20109;-79
2022/01/03 03:52:16;;;;;;;34.30;5.28;;;11.10;99.90;;;;;;4230500;28;20472;-79
2022/01/03 03:54:18;;;;;;;43.80;4.78;;;11.10;99.90;;;;;;4223311;28;20127;-78
2022/01/03 03:56:20;;;;;;;46.97;5.00;;;11.10;99.90;;;;;;4190840;28;20103;-78
2022/01/03 03:58:22;;;;;;;36.60;5.57;;;11.10;99.90;;;;;;4183137;28;20077;-80
2022/01/03 04:00:24;;;;;;;38.50;5.13;;;11.10;99.90;;;;;;4181684;28;20091;-78
2022/01/03 04:02:26;;;;;;;43.30;4.57;;;11.10;99.90;;;;;;4192547;28;20045;-80
2022/01/03 04:04:28;;;;;;;39.92;5.20;;;11.10;99.90;;;;;;4192628;28;20496;-79
2022/01/03 04:06:31;;;;;;;45.67;5.10;;;11.10;99.90;;;;;;4180928;28;20852;-79
2022/01/03 04:08:33;;;;;;;42.72;5.10;;;11.10;99.90;;;;;;4215440;28;20087;-79
2022/01/03 04:10:35;;;;;;;38.22;5.13;;;11.10;99.90;;;;;;4197485;28;20048;-78
2022/01/03 04:12:37;;;;;;;44.33;5.93;;;11.10;99.90;;;;;;4181675;28;20080;-79
2022/01/03 04:14:39;;;;;;;46.63;5.40;;;11.10;99.90;;;;;;4183625;28;20539;-78
2022/01/03 04:16:42;;;;;;;45.53;5.40;;;11.10;99.90;;;;;;4215887;28;20126;-79
2022/01/03 04:18:44;;;;;;;37.60;4.70;;;11.10;99.90;;;;;;4215818;28;20050;-79
2022/01/03 04:20:46;;;;;;;38.13;5.88;;;11.10;99.90;;;;;;4214624;28;20044;-80
2022/01/03 04:22:48;;;;;;;37.00;4.82;;;11.10;99.90;;;;;;4198817;28;20052;-79
2022/01/03 04:24:50;;;;;;;38.10;4.35;;;11.10;99.90;;;;;;4182841;28;20073;-80
2022/01/03 04:26:52;;;;;;;49.88;6.22;;;11.10;99.90;;;;;;4179743;28;20083;-79
2022/01/03 04:28:53;;;;;;;57.88;5.72;;;11.10;99.90;;;;;;4180735;28;20076;-79
2022/01/03 04:30:55;;;;;;;42.00;4.60;;;11.00;99.90;;;;;;4182026;28;20076;-79
2022/01/03 04:32:57;;;;;;;46.55;5.15;;;11.00;99.90;;;;;;4181840;28;20148;-78
2022/01/03 04:34:59;;;;;;;43.55;5.72;;;11.10;99.90;;;;;;4184833;28;20479;-79
2022/01/03 04:37:01;;;;;;;52.85;5.60;;;11.10;99.90;;;;;;4231600;28;20052;-80
2022/01/03 04:39:04;;;;;;;44.67;5.85;;;11.10;99.90;;;;;;4231811;28;20131;-79
2022/01/03 04:41:06;;;;;;;46.95;5.13;;;11.10;99.90;;;;;;4222762;28;20098;-79
2022/01/03 04:43:08;;;;;;;44.67;5.00;;;11.10;99.90;;;;;;4174576;28;20041;-79
2022/01/03 04:45:10;;;;;;;48.75;7.07;;;11.10;99.90;;;;;;4198070;28;20120;-80
2022/01/03 04:47:12;;;;;;;46.08;5.00;;;11.10;99.90;;;;;;4184004;28;20076;-79
2022/01/03 04:49:19;;;;;;;45.10;6.00;;;11.10;99.90;;;;;;4180745;28;20133;-79
2022/01/03 04:51:21;;;;;;;44.80;5.60;;;11.10;99.90;;;;;;4165924;28;20076;-79
2022/01/03 04:53:25;;;;;;;41.45;5.00;;;11.10;99.90;;;;;;4187308;28;20131;-80
2022/01/03 04:55:27;;;;;;;39.10;5.20;;;11.10;99.90;;;;;;4190063;28;20669;-79
2022/01/03 04:57:29;;;;;;;43.95;5.43;;;11.10;99.90;;;;;;4181046;28;20085;-78
2022/01/03 04:59:31;;;;;;;46.55;5.85;;;11.00;99.90;;;;;;4181417;28;20267;-78
2022/01/03 05:01:32;;;;;;;44.60;5.75;;;11.10;99.90;;;;;;4167614;28;20048;-77
2022/01/03 05:03:35;;;;;;;53.22;5.32;;;11.10;99.90;;;;;;4181116;28;20045;-80
2022/01/03 05:05:37;;;;;;;46.15;5.30;;;11.10;99.90;;;;;;4214175;28;20577;-79
2022/01/03 05:07:39;;;;;;;38.53;4.95;;;11.10;99.90;;;;;;4197099;28;20087;-79
2022/01/03 05:09:40;;;;;;;46.25;5.13;;;11.10;99.90;;;;;;4181142;28;20109;-80
2022/01/03 05:11:42;;;;;;;38.72;4.60;;;11.10;99.90;;;;;;4179485;28;20049;-79
2022/01/03 05:13:44;;;;;;;38.42;5.65;;;11.10;99.90;;;;;;4194290;28;20044;-79
2022/01/03 05:15:46;;;;;;;45.33;6.65;;;11.10;99.90;;;;;;4174984;28;20139;-79
2022/01/03 05:17:48;;;;;;;44.15;5.18;;;11.10;99.90;;;;;;4197235;28;20057;-80
2022/01/03 05:19:50;;;;;;;45.45;5.57;;;11.10;99.90;;;;;;4181268;28;20128;-80
2022/01/03 05:21:52;;;;;;;47.03;5.03;;;11.10;99.90;;;;;;4197785;28;20180;-78
2022/01/03 05:23:54;;;;;;;45.30;5.13;;;11.10;99.90;;;;;;4179918;28;20444;-79
2022/01/03 05:25:56;;;;;;;44.88;5.80;;;11.10;99.90;;;;;;4190879;28;20044;-79
2022/01/03 05:27:58;;;;;;;53.22;6.07;;;11.10;99.90;;;;;;4210188;28;20531;-79
2022/01/03 05:30:00;;;;;;;50.20;5.65;;;11.20;99.90;;;;;;4196821;28;20118;-78
2022/01/03 05:32:02;;;;;;;47.13;5.65;;;11.10;99.90;;;;;;4212942;28;20044;-79
2022/01/03 05:34:04;;;;;;;46.38;6.18;;;11.10;99.90;;;;;;4195154;28;20052;-79
2022/01/03 05:36:06;;;;;;;32.10;3.88;;;11.10;99.90;;;;;;4230580;28;20086;-79
2022/01/03 05:38:08;;;;;;;38.97;4.10;;;11.10;99.90;;;;;;4197372;28;20436;-79
2022/01/03 05:40:10;;;;;;;42.13;5.32;;;11.10;99.90;;;;;;4224467;28;20134;-79
2022/01/03 05:42:12;;;;;;;65.60;6.47;;;11.10;99.90;;;;;;4216323;28;20071;-79
2022/01/03 05:44:14;;;;;;;38.53;5.38;;;11.10;99.90;;;;;;4168344;28;20054;-79
2022/01/03 05:46:16;;;;;;;44.10;5.82;;;11.10;99.90;;;;;;4164170;28;20520;-79
2022/01/03 05:48:18;;;;;;;39.80;4.15;;;11.10;99.90;;;;;;4186831;28;20056;-80
2022/01/03 05:50:20;;;;;;;42.85;5.95;;;11.10;99.90;;;;;;4180163;28;20076;-78
2022/01/03 05:52:21;;;;;;;55.75;5.60;;;11.10;99.90;;;;;;4180426;28;20132;-79
2022/01/03 05:54:23;;;;;;;40.55;4.95;;;11.10;99.90;;;;;;4196791;28;20048;-78
2022/01/03 05:56:25;;;;;;;39.08;4.93;;;11.10;99.90;;;;;;4178471;28;20080;-79
2022/01/03 05:58:27;;;;;;;53.00;6.22;;;11.10;99.90;;;;;;4191723;28;20075;-78
2022/01/03 06:00:30;;;;;;;43.90;5.85;;;11.10;99.90;;;;;;4196781;28;20084;-78
2022/01/03 06:02:37;;;;;;;43.58;6.35;;;11.10;99.90;;;;;;4197316;28;20060;-78
2022/01/03 06:04:55;;;;;;;43.97;5.47;;;11.10;99.90;;;;;;4221787;28;20085;-80
2022/01/03 06:07:05;;;;;;;41.13;5.45;;;11.10;99.90;;;;;;4215052;28;20080;-80
2022/01/03 06:09:07;;;;;;;39.60;5.25;;;11.10;99.90;;;;;;4213939;28;20147;-79
2022/01/03 06:11:09;;;;;;;39.92;5.22;;;11.10;99.90;;;;;;4222348;28;20574;-78
2022/01/03 06:13:11;;;;;;;46.10;5.40;;;11.10;99.90;;;;;;4212322;28;20082;-79
2022/01/03 06:15:15;;;;;;;47.55;5.20;;;11.20;99.90;;;;;;4204674;28;20048;-83
2022/01/03 06:17:17;;;;;;;53.25;5.13;;;11.20;99.90;;;;;;4225216;28;20048;-80
2022/01/03 06:19:19;;;;;;;40.08;5.50;;;11.20;99.90;;;;;;4213758;28;20079;-80
2022/01/03 06:21:21;;;;;;;41.90;5.03;;;11.20;99.90;;;;;;4212317;28;20079;-79
2022/01/03 06:23:23;;;;;;;41.33;5.13;;;11.20;99.90;;;;;;4179952;28;20760;-79
2022/01/03 06:25:25;;;;;;;48.03;4.50;;;11.20;99.90;;;;;;4180143;28;20045;-79
2022/01/03 06:27:26;;;;;;;38.10;4.78;;;11.20;99.90;;;;;;4179789;28;20127;-79
2022/01/03 06:29:28;;;;;;;35.53;5.22;;;11.20;99.90;;;;;;4178521;28;20132;-80
2022/01/03 06:31:32;;;;;;;51.75;5.78;;;11.20;99.90;;;;;;4214254;28;20126;-78
2022/01/03 06:33:34;;;;;;;48.92;4.78;;;11.20;99.90;;;;;;4196495;28;20083;-79
2022/01/03 06:35:36;;;;;;;48.60;5.47;;;11.20;99.90;;;;;;4196650;28;20722;-79
2022/01/03 06:37:38;;;;;;;37.92;4.93;;;11.20;99.90;;;;;;4179928;28;20049;-78
2022/01/03 06:39:40;;;;;;;57.72;6.93;;;11.20;99.90;;;;;;4180782;28;20088;-78
2022/01/03 06:41:43;;;;;;;44.20;4.70;;;11.20;99.90;;;;;;4181118;28;20091;-80
2022/01/03 06:43:45;;;;;;;32.83;5.78;;;11.30;99.90;;;;;;4179425;28;20040;-79
2022/01/03 06:45:46;;;;;;;39.45;4.70;;;11.30;99.90;;;;;;4166100;28;20132;-80
2022/01/03 06:47:50;;;;;;;44.25;5.32;;;11.30;99.90;;;;;;4199712;28;20048;-80
2022/01/03 06:49:52;;;;;;;38.75;4.85;;;11.30;99.90;;;;;;4196136;28;20531;-79
2022/01/03 06:51:54;;;;;;;30.77;3.90;;;11.30;99.90;;;;;;4196382;28;20045;-80
2022/01/03 06:53:56;;;;;;;44.88;4.88;;;11.30;99.90;;;;;;4189083;28;20132;-79
2022/01/03 06:55:58;;;;;;;32.97;5.63;;;11.30;99.90;;;;;;4179368;28;20060;-79
2022/01/03 06:58:00;;;;;;;37.33;5.43;;;11.30;99.90;;;;;;4176923;28;20077;-80
2022/01/03 07:00:04;;;;;;;30.42;4.28;;;11.30;99.90;;;;;;4179285;28;20052;-80
2022/01/03 07:02:06;;;;;;;36.17;4.30;;;11.30;99.90;;;;;;4178724;28;20053;-81
2022/01/03 07:04:08;;;;;;;45.95;5.13;;;11.30;99.90;;;;;;4178778;28;20077;-79
2022/01/03 07:06:10;;;;;;;40.42;5.13;;;11.30;99.90;;;;;;4195146;28;20076;-79
2022/01/03 07:08:12;;;;;;;45.20;4.63;;;11.30;99.90;;;;;;4212872;28;20119;-79
2022/01/03 07:10:17;;;;;;;42.88;4.57;;;11.30;99.90;;;;;;4179745;28;20080;-78
2022/01/03 07:12:18;;;;;;;37.72;6.20;;;11.30;99.90;;;;;;4207597;28;20525;-78
2022/01/03 07:18:59;;;;;;;51.50;5.20;;;11.30;99.90;;;;;;4186157;28;20063;-79
2022/01/03 07:21:01;;;;;;;42.88;5.45;;;11.30;99.90;;;;;;4229649;28;20076;-79
2022/01/03 07:23:03;;;;;;;41.60;5.28;;;11.30;99.90;;;;;;4229564;28;20554;-78
2022/01/03 07:25:09;;;;;;;37.08;5.57;;;11.30;99.90;;;;;;4226600;28;20058;-78
2022/01/03 07:27:12;;;;;;;45.60;5.80;;;11.30;99.90;;;;;;4224633;28;20142;-80
2022/01/03 07:29:14;;;;;;;34.45;4.22;;;11.30;99.90;;;;;;4232864;28;20043;-79
2022/01/03 07:31:16;;;;;;;38.83;5.93;;;11.30;99.90;;;;;;4232878;28;20109;-79
2022/01/03 07:33:18;;;;;;;45.38;6.22;;;11.30;99.90;;;;;;4230332;28;20043;-79
2022/01/03 07:35:20;;;;;;;52.28;5.85;;;11.30;99.90;;;;;;4195904;28;20076;-79
2022/01/03 07:37:22;;;;;;;36.63;5.38;;;11.30;99.90;;;;;;4227033;28;20526;-79
2022/01/03 07:39:24;;;;;;;37.40;4.13;;;11.30;99.90;;;;;;4215955;28;20420;-79
2022/01/03 07:41:26;;;;;;;34.55;4.07;;;11.30;99.90;;;;;;4199115;28;20056;-79
2022/01/03 07:43:28;;;;;;;37.65;5.28;;;11.40;99.90;;;;;;4213774;28;20055;-79
2022/01/03 07:45:29;;;;;;;45.83;5.45;;;11.40;99.90;;;;;;4177786;28;20124;-79
2022/01/03 07:47:31;;;;;;;33.67;4.20;;;11.40;99.90;;;;;;4166030;28;20056;-79
2022/01/03 07:49:33;;;;;;;35.22;4.78;;;11.40;99.90;;;;;;4166443;28;20057;-79
2022/01/03 07:51:35;;;;;;;45.25;5.30;;;11.40;99.90;;;;;;4174381;28;20049;-80
2022/01/03 07:53:37;;;;;;;37.22;4.38;;;11.40;99.90;;;;;;4183696;28;20073;-79
2022/01/03 07:55:39;;;;;;;45.90;4.93;;;11.40;99.90;;;;;;4199246;28;20078;-80
2022/01/03 07:57:41;;;;;;;47.90;5.95;;;11.50;99.90;;;;;;4182476;28;20517;-80
2022/01/03 07:59:45;;;;;;;45.03;5.22;;;11.50;99.90;;;;;;4187896;28;20516;-80
2022/01/03 08:01:47;;;;;;;45.80;5.78;;;11.50;99.90;;;;;;4198368;28;20100;-80
2022/01/03 08:03:49;;;;;;;36.20;3.95;;;11.50;99.90;;;;;;4198734;28;20056;-78
2022/01/03 08:06:11;;;;;;;41.05;4.72;;;11.50;99.90;;;;;;4182337;28;20516;-79
2022/01/03 08:08:13;;;;;;;39.15;5.25;;;11.50;99.90;;;;;;4232404;28;20086;-79
2022/01/03 08:10:15;;;;;;;44.88;4.40;;;11.50;99.90;;;;;;4232551;28;20074;-79
2022/01/03 08:12:18;;;;;;;35.80;4.60;;;11.50;99.90;;;;;;4185094;28;20087;-79
2022/01/03 08:14:19;;;;;;;34.85;5.43;;;11.50;99.90;;;;;;4198867;28;20170;-79
2022/01/03 08:16:21;;;;;;;41.30;5.05;;;11.50;99.90;;;;;;4180422;28;20045;-79
2022/01/03 08:18:23;;;;;;;29.25;4.68;;;11.60;99.90;;;;;;4197799;28;20057;-79
2022/01/03 08:20:25;;;;;;;34.10;4.35;;;11.60;99.90;;;;;;4199273;28;20056;-79
2022/01/03 08:22:27;;;;;;;32.88;4.93;;;11.50;99.90;;;;;;4187548;28;20136;-78
2022/01/03 08:24:29;;;;;;;33.10;4.53;;;11.50;99.90;;;;;;4182325;28;20076;-79
2022/01/03 08:26:34;;;;;;;39.38;5.07;;;11.50;99.90;;;;;;4215902;28;20106;-80
2022/01/03 08:28:36;;;;;;;39.63;6.35;;;11.60;99.90;;;;;;4216659;28;20704;-77
2022/01/03 08:30:37;;;;;;;39.10;4.80;;;11.60;99.90;;;;;;4216517;28;20132;-78
2022/01/03 08:32:39;;;;;;;40.35;4.70;;;11.60;99.90;;;;;;4212380;28;20043;-79
2022/01/03 08:34:41;;;;;;;41.97;6.10;;;11.50;99.90;;;;;;4181451;28;20049;-79
2022/01/03 08:36:44;;;;;;;45.42;5.60;;;11.60;99.90;;;;;;4181650;28;20128;-80
2022/01/03 08:38:47;;;;;;;46.28;5.10;;;11.60;99.90;;;;;;4197864;28;20075;-79
2022/01/03 08:40:49;;;;;;;48.17;5.07;;;11.60;99.90;;;;;;4180964;28;20085;-79
2022/01/03 08:42:54;;;;;;;35.80;5.05;;;11.60;99.90;;;;;;4231683;28;20110;-80
2022/01/03 08:44:56;;;;;;;32.00;4.90;;;11.60;99.90;;;;;;4227020;28;20090;-79
2022/01/03 08:46:59;;;;;;;41.25;5.00;;;11.70;99.90;;;;;;4171929;28;20067;-79
2022/01/03 08:49:01;;;;;;;39.00;5.22;;;11.60;99.90;;;;;;4172224;28;20688;-79
2022/01/03 08:51:03;;;;;;;36.88;4.18;;;11.70;99.90;;;;;;4223732;28;20255;-79
2022/01/03 08:53:07;;;;;;;43.47;5.63;;;11.70;99.90;;;;;;4197811;28;20044;-78
2022/01/03 08:55:09;;;;;;;39.05;4.60;;;11.70;99.90;;;;;;4214830;28;20043;-79
2022/01/03 08:57:11;;;;;;;43.20;5.13;;;11.70;99.90;;;;;;4196590;28;20099;-80
2022/01/03 08:59:15;;;;;;;34.58;5.65;;;11.70;99.90;;;;;;4197501;28;20056;-79
2022/01/03 09:01:17;;;;;;;43.08;5.85;;;11.70;99.90;;;;;;4181176;28;20045;-79
2022/01/03 09:03:19;;;;;;;37.63;5.53;;;11.70;99.90;;;;;;4214291;28;20098;-78
2022/01/03 09:05:21;;;;;;;36.85;4.97;;;11.70;99.90;;;;;;4182055;28;20049;-79
2022/01/03 09:07:23;;;;;;;35.47;4.75;;;11.70;99.90;;;;;;4180525;28;20053;-79
2022/01/03 09:09:27;;;;;;;34.83;4.60;;;11.70;99.90;;;;;;4181174;28;20041;-79
2022/01/03 09:11:29;;;;;;;34.17;4.78;;;11.70;99.90;;;;;;4184549;28;20083;-78
2022/01/03 09:13:31;;;;;;;39.08;4.95;;;11.70;99.90;;;;;;4197392;28;20084;-77
2022/01/03 09:15:34;;;;;;;45.20;5.82;;;11.70;99.90;;;;;;4196213;28;20084;-78
2022/01/03 09:17:36;;;;;;;39.15;4.95;;;11.70;99.90;;;;;;4180575;28;20088;-80
2022/01/03 09:19:37;;;;;;;49.85;6.32;;;11.70;99.90;;;;;;4179781;28;20123;-80
2022/01/03 09:21:39;;;;;;;44.78;6.72;;;11.70;99.90;;;;;;4197341;28;20049;-78
2022/01/03 09:23:46;;;;;;;46.33;6.90;;;11.70;99.90;;;;;;4175526;28;20128;-79
2022/01/03 09:30:31;;;;;;;42.58;6.97;;;11.80;99.90;;;;;;4180445;28;20045;-79
2022/01/03 09:32:33;;;;;;;48.72;6.07;;;11.80;99.90;;;;;;4213676;28;20048;-80
2022/01/03 09:34:35;;;;;;;47.38;5.95;;;11.80;99.90;;;;;;4196224;28;20067;-78
2022/01/03 09:36:37;;;;;;;39.95;5.53;;;11.80;99.90;;;;;;4184805;28;20067;-78
2022/01/03 09:38:39;;;;;;;44.92;6.78;;;11.80;99.90;;;;;;4179539;28;20083;-79
2022/01/03 09:40:41;;;;;;;31.55;5.32;;;11.80;99.90;;;;;;4182989;28;20080;-77
2022/01/03 09:42:48;;;;;;;32.72;5.07;;;11.90;99.90;;;;;;4187866;28;20049;-78
2022/01/03 09:44:51;;;;;;;34.63;4.88;;;11.90;99.90;;;;;;4204934;28;20079;-78
2022/01/03 09:46:54;;;;;;;34.22;5.97;;;11.90;99.90;;;;;;4179306;28;20056;-78
2022/01/03 09:48:56;;;;;;;40.55;4.80;;;11.90;99.90;;;;;;4191583;28;20048;-79
2022/01/03 09:51:00;;;;;;;33.15;4.70;;;11.90;99.90;;;;;;4207288;28;20122;-78
2022/01/03 09:53:03;;;;;;;31.65;4.13;;;11.90;99.90;;;;;;4196989;28;20548;-78
2022/01/03 09:55:06;;;;;;;33.55;5.50;;;11.90;99.90;;;;;;4212562;28;20080;-79
2022/01/03 09:57:08;;;;;;;37.70;4.85;;;11.90;99.90;;;;;;4197121;28;20543;-79
2022/01/03 09:59:11;;;;;;;30.77;4.82;;;11.90;99.90;;;;;;4197337;28;20048;-79
2022/01/03 10:01:15;;;;;;;32.50;4.63;;;11.90;99.90;;;;;;4179928;28;20044;-79
2022/01/03 10:03:18;;;;;;;37.00;5.55;;;12.00;99.90;;;;;;4196597;28;20321;-78
2022/01/03 10:05:21;;;;;;;34.65;5.03;;;12.00;99.90;;;;;;4213782;28;20056;-79
2022/01/03 10:07:23;;;;;;;33.60;5.93;;;12.00;99.90;;;;;;4213173;28;20044;-78
2022/01/03 10:09:26;;;;;;;24.40;4.32;;;12.00;99.90;;;;;;4212151;28;20478;-78
2022/01/03 10:11:28;;;;;;;36.25;4.10;;;12.00;99.90;;;;;;4181481;28;20047;-78
2022/01/03 10:13:31;;;;;;;31.95;4.28;;;12.10;99.90;;;;;;4213385;28;20478;-79
2022/01/03 10:15:33;;;;;;;28.33;4.88;;;12.10;99.90;;;;;;4181786;28;20052;-79
2022/01/03 10:17:37;;;;;;;31.52;4.38;;;12.10;99.90;;;;;;4218829;28;20141;-79
2022/01/03 10:19:53;;;;;;;40.08;5.80;;;12.10;99.90;;;;;;4195244;28;20643;-80
2022/01/03 10:21:55;;;;;;;33.13;4.03;;;12.10;99.90;;;;;;4199997;28;20091;-79
2022/01/03 10:23:58;;;;;;;31.20;4.15;;;12.10;99.90;;;;;;4230650;28;20079;-79
2022/01/03 10:26:20;;;;;;;36.22;5.10;;;12.20;99.90;;;;;;4230425;28;20043;-79
2022/01/03 10:28:26;;;;;;;35.15;4.90;;;12.20;99.90;;;;;;4230719;28;20047;-79
2022/01/03 10:30:41;;;;;;;37.25;4.53;;;12.20;99.90;;;;;;4220690;28;20071;-80
2022/01/03 10:32:50;;;;;;;35.92;6.35;;;12.20;99.90;;;;;;4209479;28;20661;-79
2022/01/03 10:34:52;;;;;;;37.47;4.97;;;12.20;99.90;;;;;;4163456;28;20050;-78
2022/01/03 10:36:56;;;;;;;33.70;4.45;;;12.30;99.90;;;;;;4163426;28;20053;-79
2022/01/03 10:39:10;;;;;;;27.05;4.68;;;12.30;99.90;;;;;;4163031;28;20565;-78
2022/01/03 10:41:14;;;;;;;35.28;4.95;;;12.30;99.90;;;;;;4197137;28;20044;-80
2022/01/03 10:43:19;;;;;;;33.67;4.53;;;12.30;99.90;;;;;;4196659;28;20141;-78
2022/01/03 10:45:32;;;;;;;31.27;5.60;;;12.40;99.90;;;;;;4188753;28;20306;-78